Time;durP1;ratioP1;P1;durP2;ratioP2;P2;SDS_P1;SDS_P2;PMS_P1;PMS_P2;Temp;Humidity;BMP_temperature;BMP_pressure;BME280_temperature;BME280_humidity;BME280_pressure;Samples;Min_cycle;Max_cycle;Signal;HPM_P1;HPM_P2
2023/04/04 00:00:13;;;;;;;2.83;2.13;;;;;;;-0.58;59.75;96257.19;6066786;23;20201;-83
2023/04/04 00:02:39;;;;;;;5.73;1.83;;;;;;;-0.59;60.02;96249.59;6091204;23;20162;-83
2023/04/04 00:05:05;;;;;;;2.57;1.37;;;;;;;-0.68;59.61;96260.19;6042794;23;20164;-83
2023/04/04 00:07:30;;;;;;;3.20;1.80;;;;;;;-0.68;60.16;96253.34;6067394;23;20684;-83
2023/04/04 00:09:56;;;;;;;7.53;1.90;;;;;;;-0.79;60.55;96250.41;6066563;23;20254;-83
2023/04/04 00:12:21;;;;;;;1.60;1.50;;;;;;;-0.74;60.15;96245.09;6067714;23;20164;-83
2023/04/04 00:14:47;;;;;;;3.93;1.90;;;;;;;-0.73;60.31;96247.59;6066528;23;20163;-83
2023/04/04 00:17:12;;;;;;;2.80;1.60;;;;;;;-0.80;60.69;96246.19;6068714;23;20165;-83
2023/04/04 00:19:37;;;;;;;3.13;1.60;;;;;;;-0.81;60.40;96248.78;6089661;23;20194;-85
2023/04/04 00:22:03;;;;;;;2.87;1.60;;;;;;;-0.81;60.92;96241.97;6117720;23;20216;-84
2023/04/04 00:24:29;;;;;;;2.30;1.40;;;;;;;-0.88;60.93;96236.31;6117150;23;20209;-85
2023/04/04 00:26:54;;;;;;;3.77;1.90;;;;;;;-0.77;60.82;96246.06;6093508;23;20176;-85
2023/04/04 00:29:20;;;;;;;2.63;1.63;;;;;;;-0.77;60.16;96235.03;6093569;23;20183;-86
2023/04/04 00:31:45;;;;;;;5.43;2.00;;;;;;;-0.99;61.08;96245.25;6093771;23;20151;-86
2023/04/04 00:34:11;;;;;;;2.17;1.63;;;;;;;-0.97;61.25;96241.78;6093648;23;20172;-85
2023/04/04 00:36:36;;;;;;;2.60;1.90;;;;;;;-0.95;61.24;96232.34;6093168;23;20179;-85
2023/04/04 00:39:01;;;;;;;3.13;1.67;;;;;;;-0.92;61.37;96229.66;6093396;23;20183;-85
2023/04/04 00:41:27;;;;;;;4.03;1.70;;;;;;;-0.94;61.61;96226.34;6093822;23;20147;-85
2023/04/04 00:43:53;;;;;;;2.03;1.30;;;;;;;-1.00;61.43;96231.69;6093288;23;20207;-85
2023/04/04 00:46:19;;;;;;;3.73;1.60;;;;;;;-1.01;61.77;96226.66;6093256;23;20195;-85
2023/04/04 00:48:45;;;;;;;3.30;1.90;;;;;;;-0.96;61.58;96228.13;6093873;23;20193;-86
2023/04/04 00:51:10;;;;;;;3.30;1.70;;;;;;;-1.03;61.91;96223.34;6070236;23;20145;-85
2023/04/04 00:53:37;;;;;;;3.77;1.70;;;;;;;-1.08;62.03;96218.41;6069693;23;20190;-85
2023/04/04 00:56:02;;;;;;;2.70;1.60;;;;;;;-1.01;61.83;96217.28;6069474;23;20233;-85
2023/04/04 00:58:28;;;;;;;2.90;1.80;;;;;;;-1.01;61.82;96219.81;6068769;23;20156;-85
2023/04/04 01:00:53;;;;;;;3.97;1.90;;;;;;;-1.09;61.96;96223.56;6069439;23;20151;-85
2023/04/04 01:03:19;;;;;;;5.13;1.90;;;;;;;-1.14;62.68;96216.13;6093078;23;20149;-84
2023/04/04 01:05:44;;;;;;;3.57;1.80;;;;;;;-1.19;62.55;96211.19;6068162;23;20169;-85
2023/04/04 01:08:10;;;;;;;2.73;1.80;;;;;;;-1.21;62.70;96210.44;6069181;23;20171;-84
2023/04/04 01:10:36;;;;;;;3.67;1.80;;;;;;;-1.28;62.81;96214.09;6068901;23;20164;-84
2023/04/04 01:13:02;;;;;;;2.43;1.80;;;;;;;-1.28;62.85;96208.19;6092834;23;20165;-85
2023/04/04 01:15:27;;;;;;;4.43;1.97;;;;;;;-1.33;63.03;96212.59;6068440;23;20137;-85
2023/04/04 01:17:56;;;;;;;6.73;1.67;;;;;;;-1.27;62.91;96212.38;6065804;23;20213;-85
2023/04/04 01:20:24;;;;;;;2.30;1.80;;;;;;;-1.25;63.08;96210.59;6023897;23;20179;-85
2023/04/04 01:22:50;;;;;;;2.30;1.90;;;;;;;-1.24;63.14;96209.69;6046328;23;20153;-85
2023/04/04 01:25:17;;;;;;;2.00;1.80;;;;;;;-1.30;63.10;96207.41;6069637;23;20203;-85
2023/04/04 01:27:42;;;;;;;2.50;1.80;;;;;;;-1.30;63.01;96207.41;6045546;23;20631;-85
2023/04/04 01:30:08;;;;;;;5.20;1.87;;;;;;;-1.31;63.09;96206.59;6045673;23;20201;-85
2023/04/04 01:32:43;;;;;;;3.03;1.80;;;;;;;-1.39;63.43;96205.22;6045577;23;20555;-85
2023/04/04 01:35:19;;;;;;;3.00;1.67;;;;;;;-1.35;63.07;96207.56;6045361;23;20166;-84
2023/04/04 01:38:10;;;;;;;4.17;1.80;;;;;;;-1.36;63.46;96200.81;6069669;23;20136;-85
2023/04/04 01:40:37;;;;;;;4.27;2.27;;;;;;;-1.35;63.61;96199.94;6045484;23;20481;-85
2023/04/04 01:43:02;;;;;;;3.23;1.70;;;;;;;-1.42;63.74;96196.78;6045334;23;20188;-85
2023/04/04 01:45:28;;;;;;;5.17;2.17;;;;;;;-1.46;63.90;96197.81;6044340;23;20163;-85
2023/04/04 01:47:54;;;;;;;3.60;2.13;;;;;;;-1.39;63.75;96195.88;6044462;23;20209;-84
2023/04/04 01:50:19;;;;;;;3.17;2.03;;;;;;;-1.43;63.49;96192.59;6059126;23;20218;-84
2023/04/04 01:52:45;;;;;;;4.70;1.83;;;;;;;-1.59;63.79;96183.91;6068998;23;20169;-84
2023/04/04 01:55:11;;;;;;;3.27;1.80;;;;;;;-1.50;63.57;96188.63;6068193;23;20166;-84
2023/04/04 01:57:36;;;;;;;4.87;1.73;;;;;;;-1.43;63.58;96189.22;6068855;23;20160;-84
2023/04/04 02:00:02;;;;;;;3.10;2.10;;;;;;;-1.44;63.30;96183.28;6068391;23;20180;-84
2023/04/04 02:02:27;;;;;;;3.23;1.67;;;;;;;-1.49;63.33;96185.19;6068625;23;20207;-84
2023/04/04 02:04:53;;;;;;;2.20;2.00;;;;;;;-1.52;63.67;96189.56;6068359;23;20153;-83
2023/04/04 02:07:18;;;;;;;6.20;1.97;;;;;;;-1.61;64.00;96184.81;6068716;23;20184;-85
2023/04/04 02:09:43;;;;;;;4.40;1.87;;;;;;;-1.62;64.02;96184.00;6068215;23;20193;-85
2023/04/04 02:12:08;;;;;;;2.20;1.60;;;;;;;-1.45;63.81;96196.91;6068626;23;20167;-85
2023/04/04 02:14:35;;;;;;;3.63;2.00;;;;;;;-1.48;63.68;96198.75;6068498;23;20224;-85
2023/04/04 02:17:00;;;;;;;6.00;2.10;;;;;;;-1.62;63.97;96191.63;6068154;23;20154;-85
2023/04/04 02:19:26;;;;;;;4.87;2.17;;;;;;;-1.62;64.04;96196.72;6068752;23;20243;-85
2023/04/04 02:21:51;;;;;;;2.60;1.80;;;;;;;-1.56;64.03;96199.06;6069346;23;20165;-85
2023/04/04 02:24:16;;;;;;;2.00;1.80;;;;;;;-1.67;64.20;96191.00;6068243;23;20253;-85
2023/04/04 02:26:41;;;;;;;7.27;1.60;;;;;;;-1.58;63.81;96200.84;6068010;23;20240;-85
2023/04/04 02:29:07;;;;;;;2.90;2.00;;;;;;;-1.64;64.31;96193.41;6067960;23;20219;-86
2023/04/04 02:31:33;;;;;;;3.77;2.00;;;;;;;-1.72;64.23;96195.41;6068015;23;20157;-86
2023/04/04 02:33:58;;;;;;;4.23;2.20;;;;;;;-1.71;64.17;96185.16;6044553;23;20161;-84
2023/04/04 02:36:23;;;;;;;3.47;2.10;;;;;;;-1.67;64.41;96190.16;6067395;23;20667;-85
2023/04/04 02:38:49;;;;;;;3.47;2.00;;;;;;;-1.74;64.49;96189.56;6068098;23;20188;-86
2023/04/04 02:41:14;;;;;;;2.83;2.00;;;;;;;-1.63;64.38;96187.44;6068276;23;20165;-86
2023/04/04 02:43:39;;;;;;;4.43;1.83;;;;;;;-1.69;64.30;96177.47;6068079;23;20170;-86
2023/04/04 02:46:05;;;;;;;5.30;2.00;;;;;;;-1.65;64.08;96180.75;6067828;23;20429;-86
2023/04/04 02:48:30;;;;;;;3.23;1.90;;;;;;;-1.77;64.32;96187.13;6068510;23;20181;-86
2023/04/04 02:50:55;;;;;;;3.10;2.17;;;;;;;-1.82;64.71;96186.47;6069454;23;20184;-86
2023/04/04 02:53:21;;;;;;;4.17;2.23;;;;;;;-1.74;64.81;96179.38;6068338;23;20166;-86
2023/04/04 02:55:46;;;;;;;3.83;1.77;;;;;;;-1.80;64.56;96184.69;6068189;23;20503;-85
2023/04/04 02:58:11;;;;;;;2.50;2.17;;;;;;;-1.83;64.45;96178.00;6068923;23;20636;-86
2023/04/04 03:00:37;;;;;;;4.70;1.97;;;;;;;-1.83;65.02;96169.53;6069563;23;20157;-86
2023/04/04 03:03:02;;;;;;;3.80;2.00;;;;;;;-1.82;65.18;96174.56;6069090;23;20230;-85
2023/04/04 03:05:28;;;;;;;3.80;1.80;;;;;;;-1.88;65.17;96176.50;6069146;23;20157;-86
2023/04/04 03:07:58;;;;;;;3.07;2.10;;;;;;;-1.84;65.07;96173.81;6094087;23;20177;-86
2023/04/04 03:10:24;;;;;;;1.90;1.80;;;;;;;-1.83;64.99;96172.91;6070025;23;20519;-86
2023/04/04 03:12:50;;;;;;;3.70;2.07;;;;;;;-1.82;65.19;96181.38;6047411;23;20162;-85
2023/04/04 03:15:15;;;;;;;2.00;1.80;;;;;;;-1.85;64.86;96177.25;6069917;23;20519;-85
2023/04/04 03:17:40;;;;;;;6.63;2.33;;;;;;;-1.83;64.86;96175.47;6071052;23;20154;-83
2023/04/04 03:20:06;;;;;;;4.33;1.90;;;;;;;-1.94;65.51;96166.53;6071733;23;20229;-85
2023/04/04 03:22:31;;;;;;;6.23;2.20;;;;;;;-1.85;65.07;96173.88;6072167;23;20166;-85
2023/04/04 03:24:57;;;;;;;5.17;1.80;;;;;;;-1.85;65.04;96174.69;6071492;23;20162;-85
2023/04/04 03:27:22;;;;;;;3.67;2.30;;;;;;;-2.08;65.61;96174.69;6073273;23;20185;-85
2023/04/04 03:29:47;;;;;;;6.07;2.30;;;;;;;-1.98;65.72;96172.66;6073085;23;20177;-84
2023/04/04 03:32:13;;;;;;;5.37;1.90;;;;;;;-2.00;65.14;96173.53;6073324;23;20226;-84
2023/04/04 03:34:38;;;;;;;3.53;2.13;;;;;;;-1.97;65.48;96171.75;6074870;23;20188;-84
2023/04/04 03:37:03;;;;;;;2.63;2.00;;;;;;;-2.02;65.52;96165.13;6072899;23;20164;-84
2023/04/04 03:39:29;;;;;;;4.50;2.00;;;;;;;-2.09;65.58;96168.78;6074001;23;20222;-83
2023/04/04 03:41:55;;;;;;;3.73;2.30;;;;;;;-2.12;65.49;96170.59;6073704;23;20473;-83
2023/04/04 03:44:21;;;;;;;3.93;2.27;;;;;;;-2.14;66.24;96163.03;6073089;23;20158;-83
2023/04/04 03:46:46;;;;;;;5.53;2.13;;;;;;;-2.18;66.21;96161.50;6073119;23;20197;-84
2023/04/04 03:49:11;;;;;;;3.57;2.20;;;;;;;-2.14;65.78;96167.28;6073377;23;20200;-83
2023/04/04 03:51:36;;;;;;;3.40;2.00;;;;;;;-2.14;66.11;96164.75;6100492;23;20168;-83
2023/04/04 03:54:02;;;;;;;2.87;1.90;;;;;;;-2.13;66.10;96164.69;6075569;23;20161;-83
2023/04/04 03:56:27;;;;;;;6.97;2.10;;;;;;;-2.17;65.69;96168.22;6074391;23;20458;-83
2023/04/04 03:58:55;;;;;;;2.87;2.03;;;;;;;-2.23;66.16;96165.91;6100036;23;20173;-83
2023/04/04 04:01:20;;;;;;;4.03;1.90;;;;;;;-2.24;66.48;96171.88;6051423;23;20164;-83
2023/04/04 04:03:46;;;;;;;3.37;1.87;;;;;;;-2.18;66.48;96176.75;6075354;23;20612;-83
2023/04/04 04:06:11;;;;;;;5.03;2.17;;;;;;;-2.21;66.44;96178.56;6082654;23;20185;-83
2023/04/04 04:08:37;;;;;;;3.70;1.90;;;;;;;-2.26;66.45;96172.81;6119493;23;20325;-81
2023/04/04 04:11:04;;;;;;;3.50;2.03;;;;;;;-2.29;66.49;96173.78;6096495;23;20205;-83
2023/04/04 04:13:29;;;;;;;3.33;2.27;;;;;;;-2.46;66.73;96174.38;6096145;23;20162;-82
2023/04/04 04:15:55;;;;;;;3.30;2.10;;;;;;;-2.33;66.34;96169.66;6095146;23;20176;-81
2023/04/04 04:18:21;;;;;;;5.97;2.03;;;;;;;-2.26;66.34;96172.81;6095739;23;20165;-81
2023/04/04 04:20:46;;;;;;;4.37;3.03;;;;;;;-2.28;66.57;96178.81;6096049;23;20539;-81
2023/04/04 04:23:11;;;;;;;2.70;1.87;;;;;;;-2.35;66.44;96176.53;6095163;23;20154;-82
2023/04/04 04:25:37;;;;;;;3.50;2.00;;;;;;;-2.37;66.89;96173.22;6083718;23;20157;-82
2023/04/04 04:28:02;;;;;;;2.03;1.83;;;;;;;-2.40;66.78;96173.31;6062995;23;20197;-81
2023/04/04 04:30:27;;;;;;;5.53;2.07;;;;;;;-2.43;66.84;96181.88;6065342;23;20178;-82
2023/04/04 04:32:53;;;;;;;4.90;2.27;;;;;;;-2.41;66.46;96179.28;6065368;23;20161;-79
2023/04/04 04:35:18;;;;;;;6.30;2.40;;;;;;;-2.38;66.88;96176.66;6066429;23;20153;-80
2023/04/04 04:37:43;;;;;;;5.63;2.27;;;;;;;-2.37;67.14;96178.31;6066116;23;20528;-81
2023/04/04 04:40:09;;;;;;;4.20;2.90;;;;;;;-2.38;66.61;96174.09;6089984;23;20174;-79
2023/04/04 04:42:34;;;;;;;3.67;1.97;;;;;;;-2.49;67.08;96177.00;6089673;23;20164;-81
2023/04/04 04:45:00;;;;;;;5.40;2.20;;;;;;;-2.41;66.66;96176.72;6065375;23;20157;-81
2023/04/04 04:47:25;;;;;;;4.73;2.00;;;;;;;-2.46;67.49;96169.28;6066572;23;20221;-83
2023/04/04 04:49:50;;;;;;;2.70;2.27;;;;;;;-2.51;67.25;96175.41;6065694;23;20197;-80
2023/04/04 04:52:16;;;;;;;3.43;2.40;;;;;;;-2.46;67.23;96168.44;6066174;23;20488;-80
2023/04/04 04:54:42;;;;;;;4.03;2.53;;;;;;;-2.50;67.21;96177.06;6064441;23;20232;-80
2023/04/04 04:57:07;;;;;;;6.60;2.50;;;;;;;-2.46;66.68;96171.81;6065253;23;20169;-81
2023/04/04 04:59:33;;;;;;;3.17;2.40;;;;;;;-2.46;67.45;96173.53;6064970;23;20181;-83
2023/04/04 05:01:58;;;;;;;2.60;1.90;;;;;;;-2.48;67.23;96176.09;6088434;23;20189;-81
2023/04/04 05:04:23;;;;;;;6.60;2.43;;;;;;;-2.42;67.24;96180.16;6065670;23;20165;-83
2023/04/04 05:06:49;;;;;;;3.60;2.30;;;;;;;-2.43;67.16;96186.97;6063861;23;20186;-80
2023/04/04 05:09:14;;;;;;;3.57;2.50;;;;;;;-2.42;66.92;96186.09;6064923;23;20177;-81
2023/04/04 05:11:40;;;;;;;3.90;2.30;;;;;;;-2.30;66.85;96184.81;6066118;23;20169;-81
2023/04/04 05:14:05;;;;;;;4.20;2.80;;;;;;;-2.31;66.85;96188.25;6066944;23;20186;-78
2023/04/04 05:16:31;;;;;;;3.33;2.30;;;;;;;-2.34;67.10;96183.28;6071732;23;20146;-80
2023/04/04 05:18:56;;;;;;;4.07;2.60;;;;;;;-2.36;66.87;96190.13;6066039;23;20191;-84
2023/04/04 05:21:22;;;;;;;3.83;2.57;;;;;;;-2.32;67.06;96197.59;6065727;23;20235;-83
2023/04/04 05:23:47;;;;;;;7.13;2.60;;;;;;;-2.28;66.82;96195.78;6066866;23;20159;-82
2023/04/04 05:26:13;;;;;;;3.73;2.60;;;;;;;-2.23;66.78;96185.44;6069019;23;20192;-83
2023/04/04 05:28:39;;;;;;;3.30;2.60;;;;;;;-2.27;66.73;96194.91;6069542;23;20204;-82
2023/04/04 05:31:05;;;;;;;3.97;3.00;;;;;;;-2.26;66.75;96199.09;6071837;23;20177;-79
2023/04/04 05:33:30;;;;;;;3.10;2.40;;;;;;;-2.19;66.43;96195.44;6075004;23;20172;-84
2023/04/04 05:35:55;;;;;;;4.73;2.67;;;;;;;-2.12;66.57;96202.00;6070402;23;20216;-84
2023/04/04 05:38:21;;;;;;;3.97;2.40;;;;;;;-2.06;66.42;96198.38;6070338;23;20481;-84
2023/04/04 05:40:46;;;;;;;3.63;2.50;;;;;;;-2.11;66.07;96203.66;6071545;23;20164;-84
2023/04/04 05:43:12;;;;;;;6.00;2.50;;;;;;;-2.05;65.42;96200.84;6071813;23;20162;-84
2023/04/04 05:45:37;;;;;;;4.17;2.67;;;;;;;-1.98;65.99;96195.56;6069227;23;20154;-84
2023/04/04 05:48:03;;;;;;;4.13;2.77;;;;;;;-2.08;66.03;96195.88;6071152;23;20182;-85
2023/04/04 05:50:28;;;;;;;3.53;2.30;;;;;;;-1.89;65.64;96208.78;6071918;23;20275;-83
2023/04/04 05:52:54;;;;;;;5.17;3.20;;;;;;;-1.97;65.76;96207.38;6070634;23;20158;-86
2023/04/04 05:55:20;;;;;;;4.57;3.10;;;;;;;-1.76;65.39;96204.06;6071670;23;20244;-85
2023/04/04 05:57:51;;;;;;;4.40;2.70;;;;;;;-1.90;65.56;96208.84;6071539;23;20161;-84
2023/04/04 06:00:18;;;;;;;2.97;2.67;;;;;;;-1.82;64.74;96214.47;6095160;23;20181;-83
2023/04/04 06:02:43;;;;;;;5.00;2.90;;;;;;;-1.72;65.12;96210.69;6072125;23;20161;-83
2023/04/04 06:05:09;;;;;;;5.40;3.07;;;;;;;-1.63;64.58;96204.44;6071540;23;20219;-84
2023/04/04 06:07:35;;;;;;;3.90;3.00;;;;;;;-1.57;64.86;96201.66;6071150;23;20259;-84
2023/04/04 06:10:00;;;;;;;6.27;3.00;;;;;;;-1.57;64.55;96202.50;6095636;23;20192;-83
2023/04/04 06:12:26;;;;;;;3.07;2.70;;;;;;;-1.69;64.73;96210.56;6071427;23;20253;-82
2023/04/04 06:14:51;;;;;;;3.23;2.77;;;;;;;-1.42;64.25;96206.97;6070840;23;20169;-83
2023/04/04 06:17:17;;;;;;;6.27;3.73;;;;;;;-1.48;64.12;96211.50;6072432;23;20159;-85
2023/04/04 06:19:42;;;;;;;4.97;3.20;;;;;;;-1.39;64.14;96207.78;6047210;23;20186;-82
2023/04/04 06:22:07;;;;;;;3.60;3.20;;;;;;;-1.19;63.77;96212.91;6070520;23;20161;-85
2023/04/04 06:24:32;;;;;;;6.03;3.10;;;;;;;-1.04;63.56;96212.31;6071970;23;20161;-82
2023/04/04 06:26:58;;;;;;;3.90;3.20;;;;;;;-0.87;63.06;96209.09;6070460;23;20636;-84
2023/04/04 06:29:24;;;;;;;5.43;3.43;;;;;;;-0.81;62.70;96208.81;6072175;23;20177;-83
2023/04/04 06:31:50;;;;;;;6.47;3.57;;;;;;;-0.77;61.99;96204.44;6071843;23;20187;-84
2023/04/04 06:34:15;;;;;;;6.00;3.60;;;;;;;-0.75;61.38;96202.66;6072484;23;20175;-83
2023/04/04 06:36:40;;;;;;;8.10;4.30;;;;;;;-0.77;61.38;96207.00;6071156;23;20164;-83
2023/04/04 06:39:06;;;;;;;9.00;4.13;;;;;;;-0.63;61.21;96207.22;6071912;23;20185;-84
2023/04/04 06:41:31;;;;;;;7.10;3.47;;;;;;;-0.67;61.14;96204.00;6072682;23;20154;-84
2023/04/04 06:43:57;;;;;;;4.60;3.53;;;;;;;-0.67;60.50;96206.53;6071998;23;20174;-82
2023/04/04 06:46:23;;;;;;;7.10;3.40;;;;;;;-0.67;60.67;96203.16;6071280;23;20511;-82
2023/04/04 06:48:49;;;;;;;6.53;3.30;;;;;;;-0.75;59.94;96197.53;6070931;23;20184;-82
2023/04/04 06:51:14;;;;;;;4.83;3.17;;;;;;;-0.58;59.51;96205.34;6047118;23;20211;-83
2023/04/04 06:53:40;;;;;;;4.73;2.70;;;;;;;-0.57;58.76;96210.38;6071184;23;20292;-83
2023/04/04 06:56:06;;;;;;;4.10;2.87;;;;;;;-0.67;58.66;96200.63;6046296;23;20239;-83
2023/04/04 06:58:31;;;;;;;4.63;2.90;;;;;;;-0.37;58.58;96211.25;6069843;23;20243;-82
2023/04/04 07:00:58;;;;;;;3.57;2.93;;;;;;;-0.54;57.26;96209.41;6069963;23;20168;-83
2023/04/04 07:03:24;;;;;;;5.07;3.00;;;;;;;-0.50;57.41;96217.78;6070802;23;20163;-83
2023/04/04 07:05:49;;;;;;;4.90;2.90;;;;;;;-0.47;57.46;96213.34;6046251;23;20476;-82
2023/04/04 07:08:15;;;;;;;4.30;2.67;;;;;;;-0.30;57.10;96200.72;6044565;23;20183;-83
2023/04/04 07:10:40;;;;;;;3.80;2.70;;;;;;;-0.17;57.16;96210.41;6046180;23;20505;-82
2023/04/04 07:13:05;;;;;;;4.90;2.77;;;;;;;-0.24;56.66;96204.72;6045800;23;20167;-82
2023/04/04 07:15:30;;;;;;;5.37;2.73;;;;;;;-0.22;55.76;96202.09;6045313;23;20601;-83
2023/04/04 07:17:56;;;;;;;6.33;3.10;;;;;;;0.00;55.42;96200.28;6046198;23;20594;-83
2023/04/04 07:20:22;;;;;;;3.37;2.90;;;;;;;-0.20;55.17;96203.69;6045891;23;20176;-82
2023/04/04 07:22:47;;;;;;;3.60;2.57;;;;;;;0.05;55.64;96206.00;6045696;23;20180;-83
2023/04/04 07:25:13;;;;;;;7.03;3.07;;;;;;;0.16;55.06;96213.19;6046011;23;20630;-82
2023/04/04 07:27:39;;;;;;;4.60;2.47;;;;;;;0.19;54.42;96205.41;6047087;23;20187;-83
2023/04/04 07:30:06;;;;;;;6.97;2.80;;;;;;;0.24;54.96;96204.28;6047823;23;20184;-83
2023/04/04 07:32:31;;;;;;;6.47;2.40;;;;;;;0.06;54.83;96207.66;6046606;23;20172;-83
2023/04/04 07:34:56;;;;;;;5.23;2.90;;;;;;;0.20;54.63;96210.44;6045691;23;20161;-84
2023/04/04 07:37:22;;;;;;;3.07;2.57;;;;;;;0.34;54.34;96207.25;6046898;23;20152;-83
2023/04/04 07:39:48;;;;;;;5.23;2.70;;;;;;;0.26;53.73;96207.59;6070639;23;20188;-84
2023/04/04 07:42:15;;;;;;;5.60;2.87;;;;;;;0.14;54.17;96205.59;6046791;23;20168;-83
2023/04/04 07:44:40;;;;;;;3.00;2.60;;;;;;;0.34;54.15;96203.88;6046074;23;20291;-84
2023/04/04 07:47:05;;;;;;;5.53;2.63;;;;;;;0.24;53.63;96211.13;6046097;23;20184;-83
2023/04/04 07:49:31;;;;;;;5.10;3.23;;;;;;;0.21;53.71;96219.75;6050331;23;20203;-84
2023/04/04 07:51:56;;;;;;;4.27;3.07;;;;;;;0.11;53.89;96215.13;6070206;23;20169;-83
2023/04/04 07:54:23;;;;;;;4.43;2.93;;;;;;;0.21;53.35;96218.94;6070521;23;20175;-83
2023/04/04 07:56:48;;;;;;;3.27;2.63;;;;;;;0.27;52.99;96211.84;6070895;23;20160;-82
2023/04/04 07:59:14;;;;;;;5.50;2.93;;;;;;;0.31;53.33;96204.00;6069798;23;20185;-81
2023/04/04 08:01:40;;;;;;;5.13;3.00;;;;;;;0.64;52.64;96210.16;6069536;23;20168;-83
2023/04/04 08:04:05;;;;;;;5.00;2.77;;;;;;;0.39;53.05;96209.59;6070040;23;20482;-84
2023/04/04 08:06:32;;;;;;;4.77;2.90;;;;;;;0.76;53.12;96213.84;6069241;23;20192;-83
2023/04/04 08:08:57;;;;;;;4.70;2.73;;;;;;;0.95;52.60;96206.13;6069364;23;20181;-83
2023/04/04 08:11:23;;;;;;;3.80;3.27;;;;;;;1.19;53.15;96212.63;6070418;23;20235;-82
2023/04/04 08:13:49;;;;;;;3.47;2.70;;;;;;;0.98;51.42;96218.78;6069806;23;20165;-84
2023/04/04 08:16:15;;;;;;;6.13;3.33;;;;;;;1.28;52.64;96214.75;6093219;23;20152;-83
2023/04/04 08:18:40;;;;;;;3.93;3.10;;;;;;;1.37;51.62;96214.28;6093257;23;20181;-83
2023/04/04 08:21:06;;;;;;;5.57;2.70;;;;;;;1.26;51.46;96205.50;6069884;23;20479;-83
2023/04/04 08:23:31;;;;;;;4.53;2.77;;;;;;;1.26;51.56;96205.50;6069742;23;20264;-83
2023/04/04 08:25:58;;;;;;;3.03;2.80;;;;;;;1.52;51.35;96211.88;6069543;23;20168;-82
2023/04/04 08:28:24;;;;;;;3.77;3.10;;;;;;;1.26;50.72;96206.31;6096738;23;20153;-84
2023/04/04 08:30:52;;;;;;;10.70;3.03;;;;;;;1.12;51.05;96208.72;6074003;23;20169;-84
2023/04/04 08:33:17;;;;;;;4.40;3.20;;;;;;;1.23;51.19;96208.19;6071795;23;20164;-85
2023/04/04 08:35:43;;;;;;;4.30;3.20;;;;;;;1.11;51.01;96212.16;6094061;23;20213;-84
2023/04/04 08:38:08;;;;;;;4.87;3.00;;;;;;;1.19;50.66;96207.50;6071331;23;20154;-84
2023/04/04 08:40:34;;;;;;;4.23;2.97;;;;;;;1.22;50.79;96207.34;6070921;23;20185;-84
2023/04/04 08:43:00;;;;;;;5.03;3.20;;;;;;;1.85;50.20;96214.47;6070367;23;20161;-84
2023/04/04 08:45:27;;;;;;;3.47;2.90;;;;;;;1.48;49.69;96218.03;6069514;23;20248;-84
2023/04/04 08:47:53;;;;;;;5.23;2.97;;;;;;;1.52;50.21;96217.00;6094300;23;20651;-85
2023/04/04 08:50:18;;;;;;;6.53;3.20;;;;;;;1.58;49.78;96217.50;6094092;23;20204;-83
2023/04/04 08:52:44;;;;;;;4.77;3.00;;;;;;;2.11;50.32;96213.94;6071042;23;20157;-85
2023/04/04 08:55:10;;;;;;;7.47;3.60;;;;;;;2.19;49.70;96219.50;6069745;23;20170;-84
2023/04/04 08:57:35;;;;;;;3.37;2.87;;;;;;;2.14;48.44;96218.94;6070555;23;20157;-85
2023/04/04 09:00:04;;;;;;;4.23;2.77;;;;;;;1.91;48.30;96214.97;6070402;23;20334;-84
2023/04/04 09:02:36;;;;;;;3.70;2.90;;;;;;;1.92;47.74;96228.59;6071111;23;20246;-84
2023/04/04 09:05:01;;;;;;;6.80;2.80;;;;;;;2.09;48.00;96218.31;6093706;23;20503;-85
2023/04/04 09:07:27;;;;;;;4.00;3.10;;;;;;;2.41;47.12;96214.09;6068399;23;20284;-85
2023/04/04 09:09:52;;;;;;;5.90;3.57;;;;;;;2.52;47.82;96214.31;6071108;23;20203;-86
2023/04/04 09:12:18;;;;;;;4.47;3.70;;;;;;;2.31;47.46;96220.59;6070408;23;20161;-85
2023/04/04 09:14:45;;;;;;;3.13;2.77;;;;;;;2.53;47.42;96215.97;6045397;23;20247;-85
2023/04/04 09:17:10;;;;;;;6.50;3.10;;;;;;;2.56;47.02;96220.09;6070105;23;20153;-85
2023/04/04 09:19:36;;;;;;;4.17;3.10;;;;;;;2.93;46.51;96226.66;6069268;23;20232;-84
2023/04/04 09:22:05;;;;;;;7.03;3.10;;;;;;;3.28;46.55;96229.81;6069538;23;20240;-85
2023/04/04 09:24:41;;;;;;;5.23;3.30;;;;;;;3.22;46.21;96224.19;6069325;23;20161;-86
2023/04/04 09:27:10;;;;;;;5.97;3.00;;;;;;;3.21;45.37;96222.53;6068780;23;20196;-85
2023/04/04 09:29:39;;;;;;;4.90;3.00;;;;;;;2.84;45.01;96219.47;6069348;23;20516;-86
2023/04/04 09:32:09;;;;;;;5.23;3.00;;;;;;;3.04;45.98;96216.63;6091702;23;20166;-85
2023/04/04 09:34:35;;;;;;;4.70;3.17;;;;;;;2.92;43.87;96216.47;6069314;23;20196;-85
2023/04/04 09:37:03;;;;;;;4.80;2.80;;;;;;;3.38;45.39;96210.41;6044374;23;20178;-86
2023/04/04 09:39:28;;;;;;;3.87;2.80;;;;;;;3.79;45.57;96216.63;6066763;23;20209;-84
2023/04/04 09:41:53;;;;;;;5.30;2.73;;;;;;;3.48;43.54;96213.28;6067766;23;20153;-85
2023/04/04 09:44:19;;;;;;;3.10;2.47;;;;;;;3.54;44.22;96209.53;6067922;23;20181;-85
2023/04/04 09:46:45;;;;;;;3.43;2.67;;;;;;;3.42;43.40;96217.00;6067446;23;20189;-84
2023/04/04 09:49:11;;;;;;;5.50;2.60;;;;;;;3.39;42.71;96212.06;6067194;23;20220;-86
2023/04/04 09:51:37;;;;;;;5.13;2.70;;;;;;;3.24;43.88;96217.22;6068098;23;20169;-84
2023/04/04 09:54:05;;;;;;;6.53;2.57;;;;;;;3.15;44.18;96218.56;6091156;23;20170;-86
2023/04/04 09:56:32;;;;;;;3.10;2.50;;;;;;;3.27;44.27;96220.47;6042778;23;20235;-86
2023/04/04 09:58:58;;;;;;;3.40;3.10;;;;;;;3.30;44.72;96214.31;6067102;23;20181;-85
2023/04/04 10:01:24;;;;;;;4.33;3.03;;;;;;;3.78;44.25;96226.06;6043294;23;20162;-86
2023/04/04 10:03:53;;;;;;;4.43;2.70;;;;;;;4.04;43.86;96224.53;6067547;23;20170;-86
2023/04/04 10:06:19;;;;;;;4.63;3.00;;;;;;;4.07;43.21;96224.38;6067758;23;20818;-85
2023/04/04 10:08:44;;;;;;;3.63;2.60;;;;;;;4.21;42.49;96218.38;6071875;23;20181;-86
2023/04/04 10:11:10;;;;;;;6.00;2.53;;;;;;;4.07;43.10;96228.69;6088507;23;20199;-86
2023/04/04 10:13:39;;;;;;;4.87;2.87;;;;;;;4.13;43.46;96226.56;6082106;23;20189;-85
2023/04/04 10:16:04;;;;;;;3.60;2.97;;;;;;;4.12;41.56;96221.50;6072872;23;20161;-86
2023/04/04 10:18:32;;;;;;;4.57;2.87;;;;;;;3.65;43.81;96217.44;6093600;23;20165;-86
2023/04/04 10:20:59;;;;;;;4.53;3.03;;;;;;;3.46;43.23;96217.69;6069406;23;20157;-85
2023/04/04 10:23:26;;;;;;;7.73;3.23;;;;;;;3.15;43.11;96218.56;6069426;23;20501;-85
2023/04/04 10:25:56;;;;;;;5.23;2.50;;;;;;;3.50;43.49;96214.00;6067900;23;20555;-84
2023/04/04 10:28:22;;;;;;;6.63;2.70;;;;;;;3.52;43.92;96212.16;6093146;23;20174;-82
2023/04/04 10:31:05;;;;;;;4.07;2.90;;;;;;;4.19;43.71;96213.34;6067742;23;20161;-83
2023/04/04 10:33:49;;;;;;;3.17;2.37;;;;;;;4.02;42.08;96218.66;6068033;23;20157;-84
2023/04/04 10:36:21;;;;;;;6.13;3.20;;;;;;;4.12;42.32;96216.38;6066863;23;20201;-83
2023/04/04 10:38:54;;;;;;;4.33;2.90;;;;;;;4.29;42.54;96197.34;6067952;23;20564;-82
2023/04/04 10:41:21;;;;;;;3.87;2.60;;;;;;;3.97;42.67;96205.25;6067445;23;20152;-83
2023/04/04 10:43:46;;;;;;;5.53;2.50;;;;;;;4.14;42.43;96215.34;6067518;23;20174;-83
2023/04/04 10:46:15;;;;;;;4.50;2.50;;;;;;;3.99;41.58;96213.72;6066968;23;20185;-83
2023/04/04 10:48:41;;;;;;;3.93;2.83;;;;;;;4.14;42.94;96217.09;6067853;23;20556;-83
2023/04/04 10:51:06;;;;;;;9.17;2.87;;;;;;;4.14;42.52;96214.53;6095067;23;20165;-84
2023/04/04 10:53:36;;;;;;;4.87;3.00;;;;;;;4.37;42.81;96218.28;6072031;23;20600;-86
2023/04/04 10:56:04;;;;;;;3.67;2.70;;;;;;;4.43;39.69;96205.06;6069554;23;20188;-85
2023/04/04 10:58:29;;;;;;;6.90;3.20;;;;;;;4.27;41.48;96205.16;6068924;23;20151;-85
2023/04/04 11:00:55;;;;;;;3.53;2.67;;;;;;;4.48;40.85;96200.44;6070231;23;20611;-85
2023/04/04 11:03:21;;;;;;;4.07;2.97;;;;;;;4.74;42.67;96203.97;6069982;23;20187;-84
2023/04/04 11:05:47;;;;;;;3.70;2.40;;;;;;;4.55;40.43;96205.13;6069488;23;20507;-85
2023/04/04 11:08:24;;;;;;;5.63;3.17;;;;;;;4.50;40.94;96203.75;6068558;23;20211;-85
2023/04/04 11:10:51;;;;;;;4.13;2.60;;;;;;;4.48;41.04;96208.16;6093799;23;20147;-84
2023/04/04 11:13:20;;;;;;;4.20;2.93;;;;;;;4.58;41.98;96203.28;6094902;23;20227;-84
2023/04/04 11:15:56;;;;;;;3.97;2.93;;;;;;;4.65;40.11;96195.09;6069801;23;20161;-86
2023/04/04 11:18:22;;;;;;;4.53;3.10;;;;;;;4.95;41.04;96197.50;6069161;23;20148;-84
2023/04/04 11:20:48;;;;;;;5.13;3.30;;;;;;;4.89;40.78;96197.06;6069436;23;20234;-85
2023/04/04 11:23:16;;;;;;;2.80;2.50;;;;;;;4.73;41.41;96195.44;6069636;23;20153;-83
2023/04/04 11:25:49;;;;;;;4.87;3.10;;;;;;;5.03;39.91;96189.25;6069047;23;20171;-83
2023/04/04 11:28:32;;;;;;;5.40;2.70;;;;;;;5.02;41.94;96188.44;6093776;23;20181;-83
2023/04/04 11:31:15;;;;;;;8.50;3.27;;;;;;;4.95;41.65;96191.53;6069385;23;20193;-85